Time;durP1;ratioP1;P1;durP2;ratioP2;P2;SDS_P1;SDS_P2;PMS_P1;PMS_P2;Temp;Humidity;BMP_temperature;BMP_pressure;BME280_temperature;BME280_humidity;BME280_pressure;Samples;Min_cycle;Max_cycle;Signal;HPM_P1;HPM_P2
2022/10/21 00:00:32;;;;;;;2.47;1.43;;;14.80;98.20;;;;;;5089257;28;20463;-78
2022/10/21 00:02:59;;;;;;;1.60;1.10;;;14.80;98.20;;;;;;5058790;28;20492;-79
2022/10/21 00:05:28;;;;;;;2.53;1.53;;;14.80;98.20;;;;;;5068158;28;20904;-78
2022/10/21 00:07:55;;;;;;;1.60;1.07;;;14.80;98.20;;;;;;5073386;28;20496;-76
2022/10/21 00:10:22;;;;;;;1.50;1.00;;;14.80;98.20;;;;;;5080758;28;20460;-77
2022/10/21 00:12:49;;;;;;;1.60;1.00;;;14.70;98.20;;;;;;5071760;28;20482;-80
2022/10/21 00:15:16;;;;;;;1.53;1.00;;;14.70;98.20;;;;;;5079494;28;20477;-76
2022/10/21 00:17:43;;;;;;;1.60;1.03;;;14.70;98.20;;;;;;5075782;28;20567;-75
2022/10/21 00:20:12;;;;;;;1.60;0.90;;;14.70;98.20;;;;;;5091744;28;20816;-77
2022/10/21 00:22:40;;;;;;;3.10;2.80;;;14.70;98.20;;;;;;5065536;28;21171;-76
2022/10/21 00:25:09;;;;;;;1.60;1.00;;;14.70;98.20;;;;;;5071868;28;20499;-76
2022/10/21 00:27:36;;;;;;;1.60;1.30;;;14.70;98.20;;;;;;5074494;28;20480;-77
2022/10/21 00:30:04;;;;;;;1.60;1.00;;;14.70;98.20;;;;;;5091977;28;20467;-77
2022/10/21 00:32:31;;;;;;;1.57;1.00;;;14.70;98.20;;;;;;5065896;28;20572;-78
2022/10/21 00:34:57;;;;;;;1.60;1.10;;;14.70;98.20;;;;;;5092682;28;20523;-75
2022/10/21 00:37:24;;;;;;;1.60;1.10;;;14.70;98.20;;;;;;5072148;28;20487;-78
2022/10/21 00:39:53;;;;;;;1.70;1.30;;;14.70;98.20;;;;;;5091512;28;20463;-77
2022/10/21 00:42:22;;;;;;;1.60;1.20;;;14.80;98.20;;;;;;5070211;28;20482;-78
2022/10/21 00:45:16;;;;;;;1.60;1.10;;;14.80;98.20;;;;;;5087467;28;20480;-76
2022/10/21 00:47:46;;;;;;;1.73;1.63;;;14.80;98.20;;;;;;5064101;28;20488;-76
2022/10/21 00:50:23;;;;;;;1.50;0.97;;;14.80;98.20;;;;;;5070299;28;21099;-77
2022/10/21 00:52:51;;;;;;;1.60;1.00;;;14.80;98.20;;;;;;5059037;28;20485;-76
2022/10/21 00:55:20;;;;;;;1.53;0.90;;;14.80;98.20;;;;;;5084147;28;20507;-76
2022/10/21 00:57:47;;;;;;;1.60;1.10;;;14.80;98.20;;;;;;5076824;28;20652;-76
2022/10/21 01:00:15;;;;;;;1.60;1.00;;;14.80;98.20;;;;;;5084507;28;20465;-76
2022/10/21 01:02:42;;;;;;;1.60;1.10;;;14.80;98.20;;;;;;5059570;28;20585;-76
2022/10/21 01:05:11;;;;;;;1.60;1.00;;;14.80;98.20;;;;;;5070957;28;20484;-76
2022/10/21 01:07:38;;;;;;;1.57;1.00;;;14.80;98.20;;;;;;5073279;28;20673;-76
2022/10/21 01:10:06;;;;;;;1.60;1.00;;;14.80;98.20;;;;;;5090641;28;21022;-76
2022/10/21 01:12:43;;;;;;;1.60;0.97;;;14.70;98.20;;;;;;5067709;28;20484;-76
2022/10/21 01:15:15;;;;;;;1.60;1.00;;;14.70;98.20;;;;;;5089159;28;20484;-75
2022/10/21 01:17:50;;;;;;;1.60;1.00;;;14.70;98.20;;;;;;5063790;28;20528;-76
2022/10/21 01:20:50;;;;;;;1.60;1.00;;;14.60;98.20;;;;;;5069838;28;20469;-75
2022/10/21 01:23:46;;;;;;;1.60;1.10;;;14.60;98.20;;;;;;5061445;28;20500;-75
2022/10/21 01:26:45;;;;;;;1.60;1.10;;;14.50;98.20;;;;;;5075574;28;20492;-76
2022/10/21 01:29:36;;;;;;;1.53;1.00;;;14.50;98.20;;;;;;5069721;28;20466;-77
2022/10/21 01:32:12;;;;;;;1.60;1.00;;;14.50;98.20;;;;;;5065715;28;20476;-77
2022/10/21 01:34:44;;;;;;;1.53;1.00;;;14.50;98.20;;;;;;5090239;28;20522;-78
2022/10/21 01:37:17;;;;;;;1.57;1.00;;;14.50;98.20;;;;;;5067410;28;20513;-76
2022/10/21 01:39:51;;;;;;;1.60;1.00;;;14.40;98.20;;;;;;5069572;28;20457;-79
2022/10/21 01:42:25;;;;;;;1.60;1.00;;;14.40;98.20;;;;;;5071067;28;20480;-76
2022/10/21 01:44:56;;;;;;;1.60;1.27;;;14.40;98.20;;;;;;5061639;28;20870;-76
2022/10/21 01:47:29;;;;;;;1.60;1.00;;;14.40;98.20;;;;;;5068497;28;20478;-75
2022/10/21 01:50:03;;;;;;;1.53;1.00;;;14.40;98.20;;;;;;5080369;28;20476;-76
2022/10/21 01:52:30;;;;;;;2.23;1.93;;;14.40;98.20;;;;;;5068945;28;20514;-75
2022/10/21 01:55:01;;;;;;;1.60;1.00;;;14.40;98.20;;;;;;5085794;28;20504;-76
2022/10/21 01:57:33;;;;;;;1.60;1.10;;;14.40;98.20;;;;;;5066528;28;20478;-76
2022/10/21 02:00:04;;;;;;;1.50;1.00;;;14.40;98.20;;;;;;5074818;28;20454;-76
2022/10/21 02:02:36;;;;;;;1.60;1.10;;;14.40;98.20;;;;;;5066238;28;20481;-75
2022/10/21 02:05:09;;;;;;;1.57;1.00;;;14.40;98.20;;;;;;5067660;28;20472;-77
2022/10/21 02:07:36;;;;;;;1.60;1.00;;;14.40;98.20;;;;;;5071764;28;20841;-76
2022/10/21 02:10:04;;;;;;;1.60;1.07;;;14.40;98.20;;;;;;5088591;28;20548;-75
2022/10/21 02:12:33;;;;;;;1.53;1.00;;;14.40;98.20;;;;;;5065920;28;20477;-76
2022/10/21 02:15:02;;;;;;;1.60;1.00;;;14.40;98.20;;;;;;5083513;28;20555;-76
2022/10/21 02:17:29;;;;;;;1.57;1.00;;;14.40;98.20;;;;;;5063558;28;20569;-76
2022/10/21 02:20:01;;;;;;;1.60;1.00;;;14.40;98.20;;;;;;5067832;28;20946;-76
2022/10/21 02:22:29;;;;;;;1.60;1.00;;;14.40;98.20;;;;;;5056993;28;20565;-76
2022/10/21 02:24:59;;;;;;;1.60;1.20;;;14.40;98.20;;;;;;5068065;28;20489;-77
2022/10/21 02:27:26;;;;;;;1.60;1.00;;;14.30;98.20;;;;;;5057333;28;20482;-76
2022/10/21 02:29:57;;;;;;;1.50;1.00;;;14.30;98.20;;;;;;5068459;28;20522;-77
2022/10/21 02:32:32;;;;;;;1.60;1.00;;;14.30;98.20;;;;;;5069771;28;20489;-78
2022/10/21 02:35:14;;;;;;;1.73;1.20;;;14.30;98.20;;;;;;5093762;28;20569;-76
2022/10/21 02:37:45;;;;;;;1.60;1.00;;;14.30;98.20;;;;;;5087906;28;20485;-76
2022/10/21 02:40:17;;;;;;;1.50;0.90;;;14.30;98.20;;;;;;5107622;28;20592;-76
2022/10/21 02:42:51;;;;;;;1.53;0.90;;;14.30;98.20;;;;;;5064954;28;20509;-77
2022/10/21 02:45:19;;;;;;;1.60;1.10;;;14.30;98.20;;;;;;5088018;28;20529;-76
2022/10/21 02:47:48;;;;;;;1.60;1.00;;;14.30;98.20;;;;;;5060685;28;20477;-76
2022/10/21 02:50:17;;;;;;;1.53;1.00;;;14.30;98.20;;;;;;5068238;28;20472;-75
2022/10/21 02:52:44;;;;;;;1.60;1.00;;;14.30;98.20;;;;;;5069848;28;20857;-76
2022/10/21 02:55:11;;;;;;;1.60;1.10;;;14.30;98.20;;;;;;5082701;28;20474;-77
2022/10/21 02:57:38;;;;;;;1.60;1.00;;;14.40;98.20;;;;;;5057437;28;20485;-76
2022/10/21 03:00:06;;;;;;;1.60;1.10;;;14.40;98.20;;;;;;5077835;28;20468;-76
2022/10/21 03:02:33;;;;;;;1.60;1.00;;;14.40;98.20;;;;;;5075255;28;20566;-77
2022/10/21 03:05:00;;;;;;;2.07;1.87;;;14.40;98.20;;;;;;5067647;28;21005;-75
2022/10/21 03:07:28;;;;;;;1.60;1.20;;;14.40;98.20;;;;;;5069494;28;21218;-76
2022/10/21 03:09:55;;;;;;;1.60;1.00;;;14.40;98.20;;;;;;5087972;28;20467;-76
2022/10/21 03:12:22;;;;;;;1.60;1.00;;;14.40;98.20;;;;;;5073288;28;20501;-75
2022/10/21 03:14:49;;;;;;;1.60;1.00;;;14.40;98.20;;;;;;5070768;28;20991;-76
2022/10/21 03:17:16;;;;;;;1.50;1.00;;;14.40;98.20;;;;;;5067632;28;20522;-76
2022/10/21 03:19:43;;;;;;;1.60;1.00;;;14.40;98.20;;;;;;5087254;28;20488;-76
2022/10/21 03:22:10;;;;;;;1.60;0.93;;;14.40;98.20;;;;;;5074677;28;20510;-78
2022/10/21 03:24:38;;;;;;;1.57;1.00;;;14.40;98.20;;;;;;5077457;28;21020;-75
2022/10/21 03:27:05;;;;;;;1.60;1.00;;;14.40;98.20;;;;;;5066135;28;20480;-75
2022/10/21 03:29:32;;;;;;;1.60;1.03;;;14.40;98.20;;;;;;5087251;28;20452;-76
2022/10/21 03:31:59;;;;;;;1.53;1.00;;;14.40;98.20;;;;;;5066915;28;20481;-76
2022/10/21 03:34:26;;;;;;;1.60;1.00;;;14.40;98.20;;;;;;5067613;28;20501;-75
2022/10/21 03:36:53;;;;;;;1.60;1.00;;;14.40;98.20;;;;;;5076830;28;20868;-75
2022/10/21 03:39:19;;;;;;;1.53;1.00;;;14.30;98.20;;;;;;5082054;28;20518;-75
2022/10/21 03:41:48;;;;;;;1.57;1.00;;;14.30;98.20;;;;;;5070374;28;20473;-76
2022/10/21 03:44:15;;;;;;;1.57;1.00;;;14.30;98.20;;;;;;5074492;28;20486;-75
2022/10/21 03:46:42;;;;;;;1.60;1.10;;;14.30;98.20;;;;;;5069612;28;20646;-75
2022/10/21 03:49:10;;;;;;;1.60;1.00;;;14.40;98.20;;;;;;5077566;28;20831;-75
2022/10/21 03:51:36;;;;;;;1.60;1.00;;;14.30;98.20;;;;;;5063087;28;20492;-77
2022/10/21 03:54:03;;;;;;;1.80;1.47;;;14.30;98.20;;;;;;5085435;28;20450;-75
2022/10/21 03:56:30;;;;;;;1.60;1.00;;;14.30;98.20;;;;;;5070705;28;20496;-75
2022/10/21 03:58:59;;;;;;;1.60;1.20;;;14.40;98.20;;;;;;5078212;28;20477;-76
2022/10/21 04:01:26;;;;;;;1.50;1.00;;;14.40;98.20;;;;;;5068900;28;20483;-75
2022/10/21 04:03:53;;;;;;;1.57;1.00;;;14.40;98.20;;;;;;5073661;28;20495;-76
2022/10/21 04:06:20;;;;;;;1.60;1.00;;;14.40;98.20;;;;;;5072214;28;20485;-74
2022/10/21 04:08:46;;;;;;;1.60;1.00;;;14.40;98.20;;;;;;5072083;28;20889;-74
2022/10/21 04:11:13;;;;;;;1.57;1.00;;;14.40;98.20;;;;;;5074074;28;20526;-76
2022/10/21 04:13:40;;;;;;;1.60;1.00;;;14.40;98.20;;;;;;5075292;28;20491;-75
2022/10/21 04:16:13;;;;;;;1.60;1.00;;;14.40;98.20;;;;;;5073794;28;20566;-74
2022/10/21 04:18:40;;;;;;;1.60;1.10;;;14.40;98.20;;;;;;5072365;28;20501;-75
2022/10/21 04:21:08;;;;;;;1.60;1.00;;;14.50;98.20;;;;;;5074635;28;20469;-75
2022/10/21 04:23:35;;;;;;;1.60;1.10;;;14.50;98.20;;;;;;5071259;28;20467;-76
2022/10/21 04:26:02;;;;;;;1.57;1.00;;;14.50;98.20;;;;;;5075092;28;20488;-76
2022/10/21 04:28:29;;;;;;;1.53;1.00;;;14.50;98.20;;;;;;5079929;28;20554;-74
2022/10/21 04:30:56;;;;;;;1.57;1.00;;;14.50;98.20;;;;;;5071788;28;20598;-77
2022/10/21 04:33:25;;;;;;;1.60;1.00;;;14.50;98.20;;;;;;5083530;28;20468;-75
2022/10/21 04:35:53;;;;;;;1.60;1.10;;;14.50;98.20;;;;;;5075225;28;20537;-74
2022/10/21 04:38:21;;;;;;;1.60;1.00;;;14.60;98.20;;;;;;5085161;28;20552;-77
2022/10/21 04:40:48;;;;;;;1.57;1.00;;;14.60;98.20;;;;;;5081756;28;20528;-75
2022/10/21 04:43:15;;;;;;;1.60;1.00;;;14.60;98.20;;;;;;5075924;28;20467;-75
2022/10/21 04:45:42;;;;;;;1.60;1.00;;;14.60;98.20;;;;;;5086240;28;21008;-74
2022/10/21 04:48:09;;;;;;;1.53;1.00;;;14.60;98.20;;;;;;5070568;28;20528;-76
2022/10/21 04:50:37;;;;;;;1.60;1.00;;;14.70;98.20;;;;;;5087216;28;20466;-77
2022/10/21 04:53:04;;;;;;;1.60;1.10;;;14.70;98.20;;;;;;5063570;28;21530;-76
2022/10/21 04:55:31;;;;;;;1.60;1.00;;;14.70;98.20;;;;;;5086651;28;20563;-76
2022/10/21 04:57:58;;;;;;;1.53;1.00;;;14.70;98.20;;;;;;5058745;28;20491;-75
2022/10/21 05:00:25;;;;;;;1.60;1.10;;;14.70;98.20;;;;;;5086239;28;20543;-77
2022/10/21 05:02:52;;;;;;;1.60;1.00;;;14.70;98.20;;;;;;5072388;28;20481;-76
2022/10/21 05:05:19;;;;;;;1.60;1.00;;;14.80;98.20;;;;;;5089896;28;20599;-76
2022/10/21 05:07:47;;;;;;;1.60;1.00;;;14.80;98.20;;;;;;5076494;28;20488;-75
2022/10/21 05:10:14;;;;;;;1.60;1.00;;;14.80;98.20;;;;;;5090228;28;20476;-76
2022/10/21 05:12:41;;;;;;;1.60;1.00;;;14.80;98.20;;;;;;5068370;28;20568;-76
2022/10/21 05:15:09;;;;;;;1.60;1.10;;;14.80;98.20;;;;;;5085718;28;20484;-75
2022/10/21 05:17:36;;;;;;;1.60;1.00;;;14.80;98.20;;;;;;5064757;28;20485;-75
2022/10/21 05:20:03;;;;;;;1.60;1.00;;;14.80;98.20;;;;;;5086654;28;20555;-76
2022/10/21 05:22:30;;;;;;;1.60;1.00;;;14.80;98.20;;;;;;5065534;28;20481;-77
2022/10/21 05:24:59;;;;;;;1.60;1.10;;;14.80;98.20;;;;;;5086377;28;20496;-76
2022/10/21 05:27:26;;;;;;;1.60;1.00;;;14.80;98.20;;;;;;5065880;28;20539;-78
2022/10/21 05:29:52;;;;;;;1.60;1.10;;;14.80;98.20;;;;;;5084585;28;20836;-76
2022/10/21 05:32:20;;;;;;;1.60;1.10;;;14.80;98.20;;;;;;5066707;28;20572;-76
2022/10/21 05:34:47;;;;;;;1.60;1.00;;;14.80;98.20;;;;;;5083280;28;20469;-78
2022/10/21 05:37:14;;;;;;;1.60;1.20;;;14.80;98.20;;;;;;5070591;28;20559;-76
2022/10/21 05:39:41;;;;;;;1.60;1.00;;;14.80;98.20;;;;;;5089436;28;20548;-77
2022/10/21 05:42:09;;;;;;;1.73;1.53;;;14.80;98.20;;;;;;5072442;28;21070;-75
2022/10/21 05:44:39;;;;;;;1.53;0.97;;;14.80;98.20;;;;;;5084236;28;20652;-78
2022/10/21 05:47:06;;;;;;;1.60;1.00;;;14.80;98.20;;;;;;5079900;28;20595;-78
2022/10/21 05:49:34;;;;;;;1.60;1.00;;;14.80;98.20;;;;;;5089169;28;20461;-78
2022/10/21 05:52:01;;;;;;;1.53;1.00;;;14.80;98.20;;;;;;5070512;28;20595;-77
2022/10/21 05:54:28;;;;;;;1.60;1.00;;;14.80;98.20;;;;;;5084686;28;20806;-76
2022/10/21 05:56:56;;;;;;;1.60;1.00;;;14.80;98.20;;;;;;5072794;28;20484;-77
2022/10/21 05:59:25;;;;;;;1.57;1.00;;;14.80;98.20;;;;;;5088330;28;20559;-78
2022/10/21 06:01:52;;;;;;;1.60;1.00;;;14.80;98.20;;;;;;5075758;28;20881;-76
2022/10/21 06:04:19;;;;;;;1.60;1.00;;;14.80;98.20;;;;;;5088852;28;20488;-77
2022/10/21 06:06:46;;;;;;;1.60;1.00;;;14.80;98.20;;;;;;5072886;28;20481;-77
2022/10/21 06:09:14;;;;;;;1.60;1.10;;;14.80;98.20;;;;;;5085138;28;20465;-77
2022/10/21 06:11:41;;;;;;;1.60;1.00;;;14.90;98.20;;;;;;5072280;28;20513;-77
2022/10/21 06:14:08;;;;;;;1.60;1.00;;;14.90;98.20;;;;;;5085231;28;20464;-77
2022/10/21 06:16:37;;;;;;;1.60;1.00;;;14.90;98.20;;;;;;5076373;28;20490;-78
2022/10/21 06:19:05;;;;;;;1.60;1.10;;;14.90;98.20;;;;;;5089044;28;20835;-78
2022/10/21 06:21:32;;;;;;;1.60;1.10;;;14.90;98.20;;;;;;5075579;28;20480;-77
2022/10/21 06:23:59;;;;;;;1.60;1.00;;;14.90;98.20;;;;;;5089330;28;21399;-76
2022/10/21 06:26:26;;;;;;;1.60;1.00;;;14.90;98.20;;;;;;5079458;28;20846;-77
2022/10/21 06:28:54;;;;;;;1.60;1.00;;;14.90;98.20;;;;;;5088737;28;20464;-77
2022/10/21 06:31:21;;;;;;;1.60;1.10;;;14.90;98.20;;;;;;5072089;28;20480;-76
2022/10/21 06:33:51;;;;;;;1.60;1.00;;;15.00;98.20;;;;;;5076088;28;20884;-76
2022/10/21 06:36:19;;;;;;;1.60;0.90;;;15.00;98.20;;;;;;5076137;28;21101;-75
2022/10/21 06:38:46;;;;;;;1.60;1.00;;;15.00;98.20;;;;;;5089523;28;20457;-76
2022/10/21 06:41:14;;;;;;;1.60;1.00;;;15.00;98.20;;;;;;5074367;28;21610;-76
2022/10/21 06:43:42;;;;;;;1.60;1.10;;;15.00;98.20;;;;;;5088283;28;20453;-76
2022/10/21 06:46:32;;;;;;;1.60;1.00;;;15.10;98.20;;;;;;5077992;28;21379;-77
2022/10/21 06:49:00;;;;;;;1.60;1.00;;;15.10;98.20;;;;;;5081092;28;20456;-78
2022/10/21 06:51:28;;;;;;;1.60;1.00;;;15.10;98.20;;;;;;5077339;28;20541;-77
2022/10/21 06:53:57;;;;;;;1.60;1.00;;;15.10;98.20;;;;;;5086175;28;20449;-77
2022/10/21 06:56:26;;;;;;;1.60;1.00;;;15.10;98.20;;;;;;5074121;28;21290;-76
2022/10/21 06:58:56;;;;;;;1.80;1.20;;;15.20;98.20;;;;;;5075852;28;20504;-77
2022/10/21 07:01:25;;;;;;;1.60;1.00;;;15.20;98.20;;;;;;5073381;28;20509;-77
2022/10/21 07:03:53;;;;;;;1.60;1.00;;;15.20;98.20;;;;;;5078157;28;20461;-77
2022/10/21 07:06:22;;;;;;;1.60;1.10;;;15.20;98.20;;;;;;5074956;28;20483;-76
2022/10/21 07:08:48;;;;;;;1.60;1.00;;;15.30;98.20;;;;;;5087528;28;20980;-76
2022/10/21 07:11:16;;;;;;;1.60;0.97;;;15.30;98.20;;;;;;5071968;28;20592;-77
2022/10/21 07:13:43;;;;;;;1.60;1.00;;;15.30;98.20;;;;;;5086142;28;20475;-76
2022/10/21 07:16:16;;;;;;;1.60;1.00;;;15.30;98.20;;;;;;5074995;28;21002;-78
2022/10/21 07:18:44;;;;;;;1.60;1.00;;;15.40;98.20;;;;;;5086669;28;20624;-77
2022/10/21 07:21:15;;;;;;;1.60;1.10;;;15.40;98.20;;;;;;5074719;28;20481;-77
2022/10/21 07:23:44;;;;;;;1.50;0.90;;;15.50;98.20;;;;;;5069906;28;20480;-77
2022/10/21 07:26:11;;;;;;;1.60;1.00;;;15.50;98.20;;;;;;5077280;28;20537;-77
2022/10/21 07:28:39;;;;;;;1.60;1.00;;;15.50;98.20;;;;;;5086217;28;20456;-77
2022/10/21 07:31:06;;;;;;;1.60;1.00;;;15.50;98.20;;;;;;5076463;28;20682;-77
2022/10/21 07:33:34;;;;;;;1.60;1.00;;;15.50;98.20;;;;;;5073436;28;20457;-78
2022/10/21 07:36:07;;;;;;;1.60;1.00;;;15.50;98.20;;;;;;5076575;28;20480;-77
2022/10/21 07:38:35;;;;;;;1.60;1.00;;;15.50;98.20;;;;;;5088119;28;20484;-76
2022/10/21 07:41:04;;;;;;;1.60;1.00;;;15.60;98.20;;;;;;5073635;28;20492;-79
2022/10/21 07:43:32;;;;;;;1.60;1.00;;;15.60;98.20;;;;;;5076387;28;20461;-80
2022/10/21 07:46:00;;;;;;;1.60;1.00;;;15.60;98.20;;;;;;5075731;28;20568;-79
2022/10/21 07:48:27;;;;;;;1.60;1.10;;;15.50;98.20;;;;;;5081898;28;20822;-79
2022/10/21 07:50:54;;;;;;;1.60;1.00;;;15.50;98.20;;;;;;5076516;28;20510;-79
2022/10/21 07:53:25;;;;;;;1.60;1.00;;;15.50;98.20;;;;;;5086402;28;20949;-79
2022/10/21 07:56:04;;;;;;;1.60;1.00;;;15.40;98.20;;;;;;5079435;28;20634;-79
2022/10/21 07:58:37;;;;;;;1.60;0.93;;;15.40;98.20;;;;;;5068329;28;20965;-80
2022/10/21 08:01:07;;;;;;;1.60;1.10;;;15.40;98.20;;;;;;5072811;28;20465;-78
2022/10/21 08:03:45;;;;;;;1.87;1.23;;;15.40;98.20;;;;;;5082621;28;20525;-79
2022/10/21 08:06:13;;;;;;;1.60;1.00;;;15.30;98.20;;;;;;5076402;28;20613;-78
2022/10/21 08:08:41;;;;;;;1.60;1.00;;;15.30;98.20;;;;;;5087119;28;21010;-79
2022/10/21 08:11:11;;;;;;;1.60;1.00;;;15.30;98.20;;;;;;5074418;28;21011;-80
2022/10/21 08:13:40;;;;;;;1.60;1.10;;;15.30;98.20;;;;;;5075909;28;20457;-78
2022/10/21 08:16:07;;;;;;;1.60;1.00;;;15.30;98.20;;;;;;5070583;28;20508;-80
2022/10/21 08:18:34;;;;;;;1.60;1.00;;;15.30;98.20;;;;;;5075470;28;20821;-77
2022/10/21 08:21:04;;;;;;;1.60;0.90;;;15.30;98.20;;;;;;5074569;28;20514;-77
2022/10/21 08:23:31;;;;;;;1.60;1.00;;;15.30;98.20;;;;;;5086793;28;20492;-78
2022/10/21 08:26:00;;;;;;;1.60;1.00;;;15.30;98.20;;;;;;5075839;28;20535;-79
2022/10/21 08:28:30;;;;;;;1.70;1.20;;;15.30;98.20;;;;;;5084255;28;20461;-78
2022/10/21 08:31:03;;;;;;;1.60;1.00;;;15.30;98.20;;;;;;5067785;28;20832;-78
2022/10/21 08:33:31;;;;;;;1.60;1.00;;;15.30;98.20;;;;;;5086878;28;20500;-80
2022/10/21 08:35:58;;;;;;;1.63;1.10;;;15.30;98.20;;;;;;5076190;28;20479;-79
2022/10/21 08:38:26;;;;;;;1.60;1.00;;;15.30;98.20;;;;;;5088817;28;20469;-77
2022/10/21 08:40:53;;;;;;;1.60;1.00;;;15.30;98.20;;;;;;5080498;28;20460;-79
2022/10/21 08:43:23;;;;;;;1.60;1.00;;;15.30;98.20;;;;;;5087870;28;20520;-77
2022/10/21 08:45:55;;;;;;;1.60;1.03;;;15.30;98.20;;;;;;5077626;28;20492;-76
2022/10/21 08:48:29;;;;;;;1.60;0.90;;;15.30;98.20;;;;;;5077912;28;20590;-77
2022/10/21 08:50:58;;;;;;;1.60;1.03;;;15.30;98.20;;;;;;5074072;28;20556;-78
2022/10/21 08:53:30;;;;;;;1.60;1.00;;;15.30;98.20;;;;;;5077148;28;20976;-77
2022/10/21 08:56:03;;;;;;;1.60;1.00;;;15.30;98.20;;;;;;5076743;28;20533;-78
2022/10/21 08:58:30;;;;;;;1.60;1.10;;;15.30;98.20;;;;;;5074855;28;20468;-77
2022/10/21 09:01:03;;;;;;;1.60;1.00;;;15.30;98.20;;;;;;5074818;28;20452;-78
2022/10/21 09:03:41;;;;;;;1.60;1.00;;;15.30;98.20;;;;;;5074260;28;20464;-78
2022/10/21 09:06:20;;;;;;;1.97;1.47;;;15.30;98.20;;;;;;5077672;28;20627;-76
2022/10/21 09:09:05;;;;;;;1.60;1.00;;;15.30;98.20;;;;;;5080493;28;20460;-78
2022/10/21 09:11:46;;;;;;;1.60;1.10;;;15.30;98.20;;;;;;5079857;28;20890;-77
2022/10/21 09:15:00;;;;;;;1.60;0.90;;;15.30;98.20;;;;;;5089499;28;20765;-79
2022/10/21 09:17:56;;;;;;;1.60;1.00;;;15.30;98.20;;;;;;5067433;28;20477;-79
2022/10/21 09:20:41;;;;;;;1.60;1.00;;;15.30;98.20;;;;;;5088990;28;20785;-79
2022/10/21 09:23:38;;;;;;;1.60;1.00;;;15.30;98.20;;;;;;5071909;28;20930;-78
2022/10/21 09:26:14;;;;;;;1.60;1.10;;;15.30;98.20;;;;;;5073666;28;20496;-77
2022/10/21 09:28:41;;;;;;;1.60;1.00;;;15.30;98.20;;;;;;5087556;28;20471;-76
2022/10/21 09:31:17;;;;;;;1.60;1.00;;;15.30;98.20;;;;;;5075922;28;20476;-75
2022/10/21 09:33:49;;;;;;;1.60;1.00;;;15.30;98.20;;;;;;5074046;28;20523;-76
2022/10/21 09:36:20;;;;;;;1.60;0.93;;;15.30;98.20;;;;;;5073919;28;20495;-76
2022/10/21 09:38:54;;;;;;;1.60;1.00;;;15.40;98.20;;;;;;5087012;28;20464;-76
2022/10/21 09:41:24;;;;;;;1.60;1.00;;;15.40;98.20;;;;;;5072727;28;20485;-76
2022/10/21 09:43:51;;;;;;;2.63;2.13;;;15.40;98.20;;;;;;5077882;28;20468;-76
2022/10/21 09:46:19;;;;;;;2.03;1.83;;;15.40;98.20;;;;;;5076306;28;20476;-77
2022/10/21 09:48:50;;;;;;;1.60;1.00;;;15.50;98.20;;;;;;5085173;28;20492;-76
2022/10/21 09:51:19;;;;;;;1.60;1.00;;;15.50;98.20;;;;;;5074355;28;20481;-78
2022/10/21 09:53:51;;;;;;;1.90;1.53;;;15.50;98.20;;;;;;5087173;28;20875;-78
2022/10/21 09:56:22;;;;;;;1.63;1.10;;;15.50;98.20;;;;;;5075251;28;21004;-78
2022/10/21 09:58:51;;;;;;;2.03;1.30;;;15.60;98.20;;;;;;5076551;28;20514;-77
2022/10/21 10:01:20;;;;;;;1.60;1.03;;;15.60;98.20;;;;;;5074427;28;20835;-77
2022/10/21 10:03:50;;;;;;;1.60;1.03;;;15.70;98.20;;;;;;5074622;28;20459;-77
2022/10/21 10:06:32;;;;;;;1.60;1.00;;;15.70;98.20;;;;;;5077831;28;20469;-78
2022/10/21 10:09:14;;;;;;;1.60;1.00;;;15.80;98.20;;;;;;5088825;28;20488;-77
2022/10/21 10:11:54;;;;;;;1.60;1.00;;;15.80;98.20;;;;;;5078293;28;20484;-76
2022/10/21 10:14:28;;;;;;;1.60;1.00;;;15.90;98.20;;;;;;5085927;28;20843;-77
2022/10/21 10:16:57;;;;;;;1.60;0.90;;;15.90;98.20;;;;;;5067823;28;20872;-76
2022/10/21 10:19:27;;;;;;;1.60;1.10;;;15.90;98.20;;;;;;5079371;28;20466;-77
2022/10/21 10:22:14;;;;;;;1.60;1.00;;;15.90;98.20;;;;;;5069216;28;21018;-77
2022/10/21 10:24:42;;;;;;;1.60;1.00;;;15.90;98.20;;;;;;5085263;28;20833;-76
2022/10/21 10:27:17;;;;;;;1.60;1.00;;;15.90;98.20;;;;;;5068462;28;21029;-79
2022/10/21 10:29:50;;;;;;;1.60;1.00;;;15.90;98.20;;;;;;5086291;28;20636;-79
2022/10/21 10:32:17;;;;;;;1.63;1.00;;;15.90;98.20;;;;;;5068331;28;20485;-80
2022/10/21 10:34:54;;;;;;;1.60;1.00;;;15.90;98.20;;;;;;5087037;28;20909;-78
2022/10/21 10:37:24;;;;;;;1.60;1.00;;;16.00;98.20;;;;;;5069734;28;20559;-80
2022/10/21 10:39:55;;;;;;;1.60;1.00;;;15.90;98.20;;;;;;5088279;28;20896;-76
2022/10/21 10:42:26;;;;;;;1.60;0.93;;;15.90;98.20;;;;;;5066090;28;21172;-78
2022/10/21 10:44:56;;;;;;;1.60;1.00;;;15.90;98.20;;;;;;5087194;28;20484;-77
2022/10/21 10:47:27;;;;;;;1.63;1.00;;;15.90;98.20;;;;;;5077667;28;20488;-78
2022/10/21 10:49:56;;;;;;;1.60;1.00;;;15.90;98.20;;;;;;5093690;28;20468;-80
2022/10/21 10:52:25;;;;;;;1.60;1.00;;;15.90;98.20;;;;;;5067282;28;20485;-80
2022/10/21 10:55:15;;;;;;;1.60;1.03;;;16.00;98.20;;;;;;5088327;28;20571;-78
2022/10/21 10:57:47;;;;;;;1.60;1.00;;;16.00;98.20;;;;;;5071169;28;20477;-79
2022/10/21 11:00:18;;;;;;;1.60;1.10;;;16.00;98.20;;;;;;5090380;28;20548;-80
2022/10/21 11:02:54;;;;;;;1.60;1.00;;;16.00;98.20;;;;;;5063526;28;20732;-76
2022/10/21 11:05:28;;;;;;;1.60;1.10;;;16.10;98.20;;;;;;5090220;28;20480;-79
2022/10/21 11:07:59;;;;;;;1.60;1.00;;;16.10;98.20;;;;;;5064454;28;20477;-77
2022/10/21 11:10:34;;;;;;;1.60;1.00;;;16.20;98.20;;;;;;5085660;28;21235;-78
2022/10/21 11:13:04;;;;;;;1.63;1.00;;;16.20;98.20;;;;;;5072772;28;20536;-77
2022/10/21 11:15:50;;;;;;;1.60;1.00;;;16.30;98.20;;;;;;5082745;28;20481;-77
2022/10/21 11:18:24;;;;;;;1.60;0.90;;;16.30;98.20;;;;;;5059372;28;21139;-75
2022/10/21 11:21:05;;;;;;;1.60;1.00;;;16.40;98.20;;;;;;5076643;28;20962;-79
2022/10/21 11:23:53;;;;;;;1.60;1.00;;;16.50;98.20;;;;;;5074049;28;20468;-79
2022/10/21 11:26:29;;;;;;;1.67;1.00;;;16.50;98.20;;;;;;5074882;28;20555;-77
2022/10/21 11:29:07;;;;;;;1.60;1.00;;;16.60;98.20;;;;;;5075366;28;20882;-76
2022/10/21 11:31:41;;;;;;;1.67;1.10;;;16.60;98.20;;;;;;5068128;28;20480;-77
2022/10/21 11:34:19;;;;;;;1.67;1.07;;;16.70;98.20;;;;;;5077140;28;20573;-78
2022/10/21 11:36:58;;;;;;;1.60;1.00;;;16.70;98.20;;;;;;5074605;28;20496;-78
2022/10/21 11:39:40;;;;;;;1.63;1.10;;;16.70;98.20;;;;;;5092532;22;20582;-77
2022/10/21 11:42:19;;;;;;;1.60;0.90;;;16.70;98.20;;;;;;5063141;28;20477;-76
2022/10/21 11:45:00;;;;;;;1.70;1.20;;;16.80;98.20;;;;;;5074974;28;20483;-77
2022/10/21 11:47:41;;;;;;;1.60;0.90;;;16.90;98.20;;;;;;5072356;28;20570;-77
2022/10/21 11:50:18;;;;;;;1.60;0.97;;;17.00;98.20;;;;;;5088743;28;20556;-77
2022/10/21 11:53:10;;;;;;;1.60;0.93;;;17.10;98.20;;;;;;5098638;28;20580;-77
2022/10/21 11:55:41;;;;;;;1.60;0.90;;;17.30;98.20;;;;;;5095056;28;20468;-77
2022/10/21 11:58:29;;;;;;;1.60;0.90;;;17.40;98.20;;;;;;5083391;28;20479;-77
2022/10/21 12:01:14;;;;;;;1.60;0.93;;;17.50;98.20;;;;;;5079462;28;20483;-77
2022/10/21 12:04:01;;;;;;;1.60;0.97;;;17.70;98.20;;;;;;5093529;28;20481;-77
2022/10/21 12:06:34;;;;;;;1.60;0.90;;;18.00;98.20;;;;;;5094826;27;20506;-77
2022/10/21 12:09:06;;;;;;;1.70;1.00;;;18.20;98.20;;;;;;5101884;28;20472;-77
2022/10/21 12:11:40;;;;;;;1.60;0.93;;;18.40;98.20;;;;;;5085225;27;20520;-77
2022/10/21 12:14:25;;;;;;;1.60;1.00;;;18.60;98.20;;;;;;5096717;28;20481;-77
2022/10/21 12:16:54;;;;;;;1.60;0.93;;;18.80;98.20;;;;;;5100245;27;20475;-76
2022/10/21 12:19:24;;;;;;;1.60;0.90;;;19.10;98.20;;;;;;5097754;27;20594;-76
2022/10/21 12:21:51;;;;;;;1.63;0.97;;;19.30;98.20;;;;;;5099288;27;20535;-77
2022/10/21 12:24:35;;;;;;;1.63;0.90;;;19.40;98.20;;;;;;5113419;27;20461;-76
2022/10/21 12:27:10;;;;;;;1.60;0.90;;;19.50;98.20;;;;;;5092919;27;20521;-77
2022/10/21 12:29:53;;;;;;;1.60;0.90;;;19.60;98.20;;;;;;5097476;27;20484;-77
2022/10/21 12:32:26;;;;;;;1.70;1.00;;;19.80;98.20;;;;;;5099792;27;20478;-77
2022/10/21 12:34:54;;;;;;;1.60;0.97;;;19.90;98.20;;;;;;5098492;27;20455;-77
2022/10/21 12:37:44;;;;;;;1.60;0.90;;;19.90;98.20;;;;;;5095565;28;20464;-77
2022/10/21 12:40:16;;;;;;;1.60;0.90;;;20.10;98.20;;;;;;5087012;28;20480;-76
2022/10/21 12:42:57;;;;;;;1.63;1.00;;;20.20;98.20;;;;;;5074558;28;20472;-77
2022/10/21 12:45:30;;;;;;;1.70;1.23;;;20.40;98.20;;;;;;5094415;28;20531;-77
2022/10/21 12:47:59;;;;;;;1.60;0.90;;;20.50;98.20;;;;;;5083553;28;20476;-77
2022/10/21 12:50:30;;;;;;;1.63;0.90;;;20.50;98.20;;;;;;5094271;28;20516;-76
2022/10/21 12:53:30;;;;;;;1.60;0.93;;;20.40;98.20;;;;;;5098576;27;20654;-77
2022/10/21 12:56:01;;;;;;;1.63;0.90;;;20.40;98.20;;;;;;5085499;27;20696;-76
2022/10/21 12:58:38;;;;;;;1.63;0.90;;;20.40;98.20;;;;;;5102896;27;20491;-76
2022/10/21 13:01:08;;;;;;;1.60;1.00;;;20.40;98.20;;;;;;5100241;27;20463;-76
2022/10/21 13:03:51;;;;;;;1.60;0.90;;;20.50;98.20;;;;;;5123109;27;20467;-76
2022/10/21 13:06:55;;;;;;;1.60;1.00;;;20.50;98.20;;;;;;5083305;28;20512;-75
2022/10/21 13:09:37;;;;;;;1.60;0.90;;;20.50;98.20;;;;;;5096944;28;20992;-76